createdAt,value
2023-04-01T00:00:37.873Z,20.33
2023-04-01T00:01:37.912Z,20.37
2023-04-01T00:02:38.044Z,20.26
2023-04-01T00:03:38.386Z,20.33
2023-04-01T00:04:38.037Z,20.34
2023-04-01T00:05:38.015Z,20.27
2023-04-01T00:06:38.042Z,20.33
2023-04-01T00:07:38.083Z,20.37
2023-04-01T00:08:38.101Z,20.30
2023-04-01T00:09:38.134Z,20.37
2023-04-01T00:10:38.469Z,20.33
2023-04-01T00:11:38.198Z,20.37
2023-04-01T00:12:38.264Z,20.33
2023-04-01T00:13:38.255Z,20.34
2023-04-01T00:14:38.371Z,20.30
2023-04-01T00:15:38.308Z,20.34
2023-04-01T00:16:38.432Z,20.37
2023-04-01T00:17:38.716Z,20.31
2023-04-01T00:18:38.408Z,20.27
2023-04-01T00:19:38.428Z,20.33
2023-04-01T00:20:38.460Z,20.26
2023-04-01T00:21:38.499Z,20.33
2023-04-01T00:22:38.518Z,20.25
2023-04-01T00:24:38.891Z,20.33
2023-04-01T00:25:38.606Z,20.26
2023-04-01T00:26:38.646Z,20.25
2023-04-01T00:27:38.665Z,20.30
2023-04-01T00:28:38.719Z,20.33
2023-04-01T00:29:38.940Z,20.25
2023-04-01T00:30:38.753Z,20.33
2023-04-01T00:31:39.115Z,20.25
2023-04-01T00:32:38.924Z,20.33
2023-04-01T00:33:38.846Z,20.23
2023-04-01T00:34:38.893Z,20.25
2023-04-01T00:35:38.907Z,20.27
2023-04-01T00:36:38.975Z,20.27
2023-04-01T00:37:38.958Z,20.27
2023-04-01T00:38:39.363Z,20.23
2023-04-01T00:39:39.019Z,20.25
2023-04-01T00:40:39.060Z,20.27
2023-04-01T00:41:39.083Z,20.23
2023-04-01T00:42:39.111Z,20.20
2023-04-01T00:43:39.146Z,20.19
2023-04-01T00:44:39.205Z,20.20
2023-04-01T00:45:39.520Z,20.19
2023-04-01T00:46:39.248Z,20.26
2023-04-01T00:48:39.285Z,20.22
2023-04-01T00:50:39.362Z,20.17
2023-04-01T00:51:39.672Z,20.20
2023-04-01T00:52:39.410Z,20.12
2023-04-01T00:53:39.444Z,20.13
2023-04-01T00:54:39.461Z,20.23
2023-04-01T00:55:39.503Z,20.13
2023-04-01T00:56:39.625Z,20.23
2023-04-01T00:57:39.564Z,20.16
2023-04-01T00:58:39.883Z,20.20
2023-04-01T00:59:39.672Z,20.15
2023-04-01T01:00:39.679Z,20.13
2023-04-01T01:01:39.668Z,20.16
2023-04-01T01:02:39.778Z,20.12
2023-04-01T01:03:39.728Z,20.19
2023-04-01T01:04:40.073Z,20.17
2023-04-01T01:05:48.895Z,20.17
2023-04-01T01:06:39.826Z,20.16
2023-04-01T01:07:39.845Z,20.16
2023-04-01T01:08:39.919Z,20.13
2023-04-01T01:09:39.908Z,20.16
2023-04-01T01:10:40.236Z,20.17
2023-04-01T01:11:43.794Z,20.19
2023-04-01T01:12:40.146Z,20.17
2023-04-01T01:13:41.258Z,20.17
2023-04-01T01:14:40.049Z,20.13
2023-04-01T01:15:40.103Z,20.20
2023-04-01T01:16:40.449Z,20.17
2023-04-01T01:17:40.222Z,20.15
2023-04-01T01:18:40.169Z,20.15
2023-04-01T01:19:40.191Z,20.17
2023-04-01T01:20:40.222Z,20.12
2023-04-01T01:21:40.251Z,20.17
2023-04-01T01:22:40.286Z,20.17
2023-04-01T01:23:40.623Z,20.08
2023-04-01T01:24:40.347Z,20.13
2023-04-01T01:25:40.381Z,20.13
2023-04-01T01:26:40.411Z,20.26
2023-04-01T01:27:40.429Z,20.13
2023-04-01T01:28:40.460Z,20.17
2023-04-01T01:29:40.622Z,20.13
2023-04-01T01:30:40.834Z,20.13
2023-04-01T01:31:40.553Z,20.17
2023-04-01T01:32:40.614Z,20.13
2023-04-01T01:33:40.603Z,20.17
2023-04-01T01:34:40.637Z,20.16
2023-04-01T01:35:40.729Z,20.10
2023-04-01T01:36:40.702Z,20.19
2023-04-01T01:37:41.020Z,20.17
2023-04-01T01:38:40.755Z,20.16
2023-04-01T01:40:40.811Z,20.19
2023-04-01T01:41:40.840Z,20.17
2023-04-01T01:42:40.880Z,20.15
2023-04-01T01:43:40.907Z,20.05
2023-04-01T01:44:41.227Z,20.02
2023-04-01T01:46:40.984Z,20.12
2023-04-01T01:47:41.030Z,20.15
2023-04-01T01:48:41.082Z,20.13
2023-04-01T01:49:41.072Z,20.10
2023-04-01T01:50:41.107Z,20.17
2023-04-01T01:51:41.434Z,20.10
2023-04-01T01:52:41.160Z,20.12
2023-04-01T01:53:41.191Z,20.17
2023-04-01T01:54:41.222Z,20.15
2023-04-01T01:55:41.246Z,20.15
2023-04-01T01:56:41.293Z,20.15
2023-04-01T01:57:41.313Z,20.10
2023-04-01T01:58:41.644Z,20.15
2023-04-01T01:59:41.370Z,20.10
2023-04-01T02:00:41.391Z,20.15
2023-04-01T02:01:41.479Z,20.12
2023-04-01T02:02:41.515Z,20.08
2023-04-01T02:03:41.480Z,20.15
2023-04-01T02:04:41.573Z,20.07
2023-04-01T02:05:41.842Z,20.08
2023-04-01T02:06:41.567Z,20.15
2023-04-01T02:07:41.606Z,20.02
2023-04-01T02:09:41.659Z,20.02
2023-04-01T02:10:41.736Z,20.02
2023-04-01T02:11:41.858Z,20.10
2023-04-01T02:12:42.044Z,20.10
2023-04-01T02:13:41.787Z,20.12
2023-04-01T02:15:41.872Z,20.04
2023-04-01T02:16:41.860Z,20.02
2023-04-01T02:17:41.918Z,20.13
2023-04-01T02:18:41.917Z,20.05
2023-04-01T02:19:42.256Z,20.01
2023-04-01T02:20:42.094Z,20.05
2023-04-01T02:21:42.008Z,20.10
2023-04-01T02:22:42.042Z,20.01
2023-04-01T02:23:42.072Z,20.10
2023-04-01T02:24:42.105Z,20.12
2023-04-01T02:25:42.125Z,20.12
2023-04-01T02:26:42.470Z,20.04
2023-04-01T02:27:42.182Z,20.00
2023-04-01T02:28:42.215Z,20.07
2023-04-01T02:29:42.246Z,20.05
2023-04-01T02:30:42.266Z,20.12
2023-04-01T02:31:42.333Z,20.15
2023-04-01T02:32:42.772Z,20.05
2023-04-01T02:33:42.760Z,20.10
2023-04-01T02:35:42.470Z,20.10
2023-04-01T02:36:42.460Z,20.12
2023-04-01T02:37:42.471Z,20.02
2023-04-01T02:39:42.536Z,20.02
2023-04-01T02:40:42.870Z,20.08
2023-04-01T02:41:42.587Z,20.10
2023-04-01T02:42:42.645Z,20.02
2023-04-01T02:43:42.758Z,20.04
2023-04-01T02:44:42.677Z,20.07
2023-04-01T02:45:42.709Z,20.07
2023-04-01T02:46:42.763Z,20.04
2023-04-01T02:47:43.100Z,20.15
2023-04-01T02:48:42.807Z,20.04
2023-04-01T02:49:42.825Z,20.07
2023-04-01T02:50:42.860Z,20.13
2023-04-01T02:51:42.887Z,20.07
2023-04-01T02:52:42.937Z,20.07
2023-04-01T02:53:43.309Z,20.10
2023-04-01T02:54:42.975Z,20.02
2023-04-01T02:55:43.009Z,20.07
2023-04-01T02:56:43.054Z,20.05
2023-04-01T02:57:43.062Z,20.05
2023-04-01T02:58:43.093Z,20.07
2023-04-01T02:59:43.429Z,20.01
2023-04-01T03:00:43.201Z,20.02
2023-04-01T03:01:43.183Z,20.02
2023-04-01T03:02:43.291Z,19.94
2023-04-01T03:03:43.241Z,20.05
2023-04-01T03:04:43.273Z,20.12
2023-04-01T03:05:43.612Z,20.02
2023-04-01T03:06:43.331Z,20.04
2023-04-01T03:07:43.376Z,20.01
2023-04-01T03:08:43.408Z,20.05
2023-04-01T03:10:43.468Z,20.02
2023-04-01T03:11:43.487Z,20.00
2023-04-01T03:12:43.822Z,19.97
2023-04-01T03:13:43.544Z,19.92
2023-04-01T03:14:43.565Z,20.02
2023-04-01T03:15:43.597Z,20.07
2023-04-01T03:16:43.669Z,20.00
2023-04-01T03:17:43.703Z,20.01
2023-04-01T03:18:43.692Z,19.98
2023-04-01T03:19:44.010Z,19.94
2023-04-01T03:20:43.738Z,20.01
2023-04-01T03:21:43.764Z,19.97
2023-04-01T03:22:43.800Z,19.94
2023-04-01T03:23:43.828Z,19.94
2023-04-01T03:24:43.872Z,19.92
2023-04-01T03:25:43.879Z,19.94
2023-04-01T03:26:44.217Z,19.97
2023-04-01T03:27:43.942Z,19.95
2023-04-01T03:28:43.971Z,20.04
2023-04-01T03:29:44.011Z,19.95
2023-04-01T03:30:44.046Z,19.92
2023-04-01T03:31:44.075Z,19.89
2023-04-01T03:32:44.120Z,19.94
2023-04-01T03:33:44.413Z,19.97
2023-04-01T03:36:44.277Z,19.94
2023-04-01T03:37:44.232Z,19.95
2023-04-01T03:38:44.262Z,19.95
2023-04-01T03:39:44.788Z,19.94
2023-04-01T03:40:44.651Z,19.95
2023-04-01T03:41:44.343Z,19.89
2023-04-01T03:42:44.414Z,19.94
2023-04-01T03:43:44.414Z,19.92
2023-04-01T03:44:44.434Z,19.94
2023-04-01T03:45:44.464Z,19.95
2023-04-01T03:46:44.521Z,19.92
2023-04-01T03:47:44.946Z,19.86
2023-04-01T03:48:44.844Z,19.97
2023-04-01T03:49:44.579Z,19.92
2023-04-01T03:50:44.611Z,19.94
2023-04-01T03:51:44.808Z,19.92
2023-04-01T03:52:44.669Z,19.90
2023-04-01T03:53:44.799Z,19.92
2023-04-01T03:54:45.131Z,19.95
2023-04-01T03:55:44.753Z,19.90
2023-04-01T03:56:44.838Z,19.86
2023-04-01T03:57:44.812Z,19.92
2023-04-01T03:58:44.849Z,19.90
2023-04-01T03:59:44.882Z,19.89
2023-04-01T04:00:44.904Z,19.95
2023-04-01T04:01:44.928Z,19.97
2023-04-01T04:02:45.052Z,19.95
2023-04-01T04:03:45.125Z,19.83
2023-04-01T04:04:45.197Z,19.90
2023-04-01T04:05:45.062Z,19.87
2023-04-01T04:06:45.083Z,19.85
2023-04-01T04:07:45.405Z,19.82
2023-04-01T04:08:45.138Z,19.83
2023-04-01T04:09:45.171Z,19.85
2023-04-01T04:10:45.195Z,19.87
2023-04-01T04:11:45.242Z,19.86
2023-04-01T04:12:45.273Z,19.79
2023-04-01T04:13:45.296Z,19.85
2023-04-01T04:14:45.610Z,19.79
2023-04-01T04:15:45.376Z,19.80
2023-04-01T04:16:45.362Z,19.82
2023-04-01T04:17:45.450Z,19.80
2023-04-01T04:18:45.440Z,19.83
2023-04-01T04:19:45.463Z,19.82
2023-04-01T04:20:45.890Z,19.82
2023-04-01T04:21:45.510Z,19.82
2023-04-01T04:22:45.540Z,19.78
2023-04-01T04:23:45.623Z,19.83
2023-04-01T04:24:45.601Z,19.80
2023-04-01T04:25:45.631Z,19.79
2023-04-01T04:26:45.973Z,19.82
2023-04-01T04:27:45.686Z,19.85
2023-04-01T04:29:45.768Z,19.79
2023-04-01T04:30:45.773Z,19.79
2023-04-01T04:31:45.932Z,19.76
2023-04-01T04:32:46.148Z,19.79
2023-04-01T04:33:45.855Z,19.76
2023-04-01T04:34:45.898Z,19.80
2023-04-01T04:35:46.034Z,19.80
2023-04-01T04:36:45.943Z,19.75
2023-04-01T04:37:46.025Z,19.76
2023-04-01T04:38:46.037Z,19.80
2023-04-01T04:40:46.371Z,19.79
2023-04-01T04:41:46.104Z,19.80
2023-04-01T04:42:46.121Z,19.83
2023-04-01T04:43:46.156Z,19.82
2023-04-01T04:44:46.175Z,19.83
2023-04-01T04:45:46.232Z,19.80
2023-04-01T04:46:46.688Z,19.80
2023-04-01T04:47:46.317Z,19.75
2023-04-01T04:48:46.296Z,19.71
2023-04-01T04:49:46.327Z,19.79
2023-04-01T04:50:46.354Z,19.82
2023-04-01T04:51:46.387Z,19.79
2023-04-01T04:52:46.409Z,19.76
2023-04-01T04:53:46.748Z,19.80
2023-04-01T04:54:46.486Z,19.78
2023-04-01T04:55:46.497Z,19.79
2023-04-01T04:56:46.746Z,19.79
2023-04-01T04:57:46.551Z,19.79
2023-04-01T04:58:46.597Z,19.78
2023-04-01T04:59:46.627Z,19.75
2023-04-01T05:00:46.952Z,19.80
2023-04-01T05:01:46.857Z,19.72
2023-04-01T05:02:46.835Z,19.86
2023-04-01T05:03:46.853Z,19.83
2023-04-01T05:04:46.756Z,19.78
2023-04-01T05:05:46.797Z,19.79
2023-04-01T05:06:46.813Z,19.70
2023-04-01T05:07:47.147Z,19.76
2023-04-01T05:08:46.872Z,19.75
2023-04-01T05:09:46.904Z,19.83
2023-04-01T05:10:47.089Z,19.79
2023-04-01T05:11:46.960Z,19.71
2023-04-01T05:12:46.988Z,19.78
2023-04-01T05:13:47.080Z,19.72
2023-04-01T05:14:47.354Z,19.78
2023-04-01T05:15:47.073Z,19.78
2023-04-01T05:16:47.160Z,19.75
2023-04-01T05:17:47.233Z,19.79
2023-04-01T05:18:47.162Z,19.72
2023-04-01T05:19:47.189Z,19.72
2023-04-01T05:20:47.219Z,19.78
2023-04-01T05:21:47.549Z,19.86
2023-04-01T05:22:47.277Z,19.78
2023-04-01T05:23:47.324Z,19.83
2023-04-01T05:24:47.330Z,19.79
2023-04-01T05:25:47.365Z,19.71
2023-04-01T05:26:47.464Z,19.80
2023-04-01T05:27:47.493Z,19.76
2023-04-01T05:28:47.757Z,19.82
2023-04-01T05:29:47.493Z,19.75
2023-04-01T05:30:47.652Z,19.78
2023-04-01T05:31:47.710Z,19.78
2023-04-01T05:32:47.612Z,19.76
2023-04-01T05:34:47.646Z,19.83
2023-04-01T05:35:47.988Z,19.79
2023-04-01T05:36:47.692Z,19.78
2023-04-01T05:37:47.725Z,19.72
2023-04-01T05:38:47.743Z,19.70
2023-04-01T05:39:47.988Z,19.70
2023-04-01T05:40:47.842Z,19.76
2023-04-01T05:41:48.419Z,19.70
2023-04-01T05:42:48.168Z,19.75
2023-04-01T05:43:47.939Z,19.68
2023-04-01T05:44:47.924Z,19.72
2023-04-01T05:45:47.961Z,19.78
2023-04-01T05:46:47.971Z,19.79
2023-04-01T05:47:48.199Z,19.76
2023-04-01T05:48:48.032Z,19.76
2023-04-01T05:49:48.414Z,19.70
2023-04-01T05:50:48.212Z,19.79
2023-04-01T05:51:48.142Z,19.67
2023-04-01T05:52:48.227Z,19.68
2023-04-01T05:53:48.174Z,19.72
2023-04-01T05:54:48.202Z,19.70
2023-04-01T05:55:48.271Z,19.71
2023-04-01T05:56:49.012Z,19.71
2023-04-01T05:57:48.289Z,19.71
2023-04-01T05:58:48.411Z,19.75
2023-04-01T05:59:48.349Z,19.76
2023-04-01T06:00:49.847Z,19.71
2023-04-01T06:01:48.414Z,19.67
2023-04-01T06:02:48.543Z,19.70
2023-04-01T06:03:49.059Z,19.72
2023-04-01T06:04:48.546Z,19.68
2023-04-01T06:05:48.610Z,19.72
2023-04-01T06:06:48.585Z,19.67
2023-04-01T06:07:48.620Z,19.75
2023-04-01T06:08:48.625Z,19.71
2023-04-01T06:09:48.936Z,19.76
2023-04-01T06:10:48.662Z,19.64
2023-04-01T06:11:48.694Z,19.71
2023-04-01T06:12:48.724Z,19.71
2023-04-01T06:13:48.803Z,19.67
2023-04-01T06:14:48.794Z,19.64
2023-04-01T06:15:49.159Z,19.64
2023-04-01T06:16:48.982Z,19.60
2023-04-01T06:17:48.942Z,19.64
2023-04-01T06:18:49.212Z,19.58
2023-04-01T06:19:48.926Z,19.62
2023-04-01T06:20:48.956Z,19.65
2023-04-01T06:21:49.284Z,19.62
2023-04-01T06:22:49.055Z,19.60
2023-04-01T06:23:49.046Z,19.64
2023-04-01T06:24:49.067Z,19.72
2023-04-01T06:25:49.099Z,19.70
2023-04-01T06:26:49.143Z,19.62
2023-04-01T06:27:49.174Z,19.68
2023-04-01T06:28:49.490Z,19.68
2023-04-01T06:29:49.212Z,19.62
2023-04-01T06:30:49.242Z,19.70
2023-04-01T06:31:49.391Z,19.71
2023-04-01T06:32:49.336Z,19.64
2023-04-01T06:33:49.352Z,19.71
2023-04-01T06:34:49.352Z,19.61
2023-04-01T06:35:49.857Z,19.64
2023-04-01T06:36:49.435Z,19.68
2023-04-01T06:37:49.446Z,19.72
2023-04-01T06:38:49.502Z,19.72
2023-04-01T06:39:49.517Z,19.67
2023-04-01T06:40:49.536Z,19.67
2023-04-01T06:41:49.754Z,19.71
2023-04-01T06:42:49.898Z,19.67
2023-04-01T06:43:49.622Z,19.60
2023-04-01T06:44:49.757Z,19.75
2023-04-01T06:46:49.710Z,19.67
2023-04-01T06:47:49.766Z,19.68
2023-04-01T06:48:49.758Z,19.64
2023-04-01T06:49:50.098Z,19.72
2023-04-01T06:50:49.835Z,19.67
2023-04-01T06:51:49.842Z,19.75
2023-04-01T06:52:49.881Z,19.72
2023-04-01T06:53:49.905Z,19.72
2023-04-01T06:55:50.027Z,19.72
2023-04-01T06:56:50.302Z,19.75
2023-04-01T06:57:50.018Z,19.75
2023-04-01T06:58:50.048Z,19.72
2023-04-01T06:59:50.085Z,19.65
2023-04-01T07:00:50.163Z,19.76
2023-04-01T07:01:50.170Z,19.71
2023-04-01T07:02:50.211Z,19.71
2023-04-01T07:03:50.501Z,19.71
2023-04-01T07:04:50.218Z,19.64
2023-04-01T07:05:50.249Z,19.61
2023-04-01T07:06:50.277Z,19.71
2023-04-01T07:07:50.763Z,19.67
2023-04-01T07:08:50.336Z,19.72
2023-04-01T07:09:50.363Z,19.65
2023-04-01T07:10:50.865Z,19.75
2023-04-01T07:11:50.450Z,19.62
2023-04-01T07:12:50.472Z,19.60
2023-04-01T07:13:50.485Z,19.67
2023-04-01T07:14:50.514Z,19.72
2023-04-01T07:15:50.552Z,19.62
2023-04-01T07:16:50.627Z,19.60
2023-04-01T07:17:50.897Z,19.70
2023-04-01T07:18:50.635Z,19.58
2023-04-01T07:19:50.646Z,19.67
2023-04-01T07:20:50.671Z,19.57
2023-04-01T07:21:50.727Z,19.68
2023-04-01T07:22:50.733Z,19.67
2023-04-01T07:23:50.766Z,19.71
2023-04-01T07:24:51.140Z,19.67
2023-04-01T07:25:50.821Z,19.64
2023-04-01T07:26:50.858Z,19.65
2023-04-01T07:27:50.893Z,19.62
2023-04-01T07:28:50.948Z,19.65
2023-04-01T07:29:50.936Z,19.61
2023-04-01T07:30:50.996Z,19.62
2023-04-01T07:31:51.847Z,19.62
2023-04-01T07:33:51.233Z,19.62
2023-04-01T07:34:51.153Z,19.65
2023-04-01T07:35:51.176Z,19.60
2023-04-01T07:36:51.172Z,19.58
2023-04-01T07:37:51.340Z,19.62
2023-04-01T07:38:51.519Z,19.61
2023-04-01T07:39:51.242Z,19.71
2023-04-01T07:40:51.258Z,19.67
2023-04-01T07:41:51.287Z,19.55
2023-04-01T07:42:51.368Z,19.60
2023-04-01T07:43:51.376Z,19.67
2023-04-01T07:44:51.379Z,19.67
2023-04-01T07:45:51.856Z,19.61
2023-04-01T09:29:27.943Z,19.50
2023-04-01T09:30:27.929Z,19.52
2023-04-01T09:31:28.015Z,19.46
2023-04-01T09:32:28.076Z,19.49
2023-04-01T09:33:28.024Z,19.46
2023-04-01T09:34:28.053Z,19.52
2023-04-01T09:35:28.379Z,19.47
2023-04-01T09:36:28.097Z,19.46
2023-04-01T09:37:28.152Z,19.42
2023-04-01T09:38:28.257Z,19.52
2023-04-01T09:39:28.184Z,19.43
2023-04-01T09:40:28.217Z,19.40
2023-04-01T09:41:28.556Z,19.46
2023-04-01T09:42:28.267Z,19.43
2023-04-01T09:43:28.322Z,19.40
2023-04-01T09:44:28.326Z,19.45
2023-04-01T09:45:28.377Z,19.45
2023-04-01T09:46:28.493Z,19.39
2023-04-01T09:47:28.764Z,19.43
2023-04-01T09:48:28.674Z,19.43
2023-04-01T09:49:28.472Z,19.40
2023-04-01T09:50:28.539Z,19.47
2023-04-01T09:51:28.521Z,19.39
2023-04-01T09:53:28.732Z,19.42
2023-04-01T09:54:28.986Z,19.45
2023-04-01T09:55:28.655Z,19.45
2023-04-01T09:56:29.027Z,19.47
2023-04-01T09:57:28.811Z,19.52
2023-04-01T09:58:28.776Z,19.53
2023-04-01T10:00:29.085Z,19.38
2023-04-01T10:01:28.900Z,19.57
2023-04-01T10:02:28.857Z,19.40
2023-04-01T10:03:29.802Z,19.47
2023-04-01T10:04:29.182Z,19.40
2023-04-01T10:05:28.999Z,19.50
2023-04-01T10:06:28.943Z,19.46
2023-04-01T10:07:29.276Z,19.40
2023-04-01T10:09:29.033Z,19.43
2023-04-01T10:10:29.190Z,19.49
2023-04-01T10:12:29.175Z,19.53
2023-04-01T10:14:29.473Z,19.50
2023-04-01T10:15:29.306Z,19.53
2023-04-01T10:16:29.294Z,19.47
2023-04-01T10:17:29.307Z,19.49
2023-04-01T10:18:29.279Z,19.49
2023-04-01T10:19:29.315Z,19.58
2023-04-01T10:20:29.452Z,19.49
2023-04-01T10:21:29.728Z,19.55
2023-04-01T10:22:29.398Z,19.53
2023-04-01T10:23:29.473Z,19.55
2023-04-01T10:24:29.454Z,19.50
2023-04-01T10:26:29.570Z,19.57
2023-04-01T10:27:29.536Z,19.53
2023-04-01T10:28:29.906Z,19.55
2023-04-01T10:29:29.595Z,19.53
2023-04-01T10:30:29.619Z,19.50
2023-04-01T10:31:29.685Z,19.52
2023-04-01T10:32:29.693Z,19.53
2023-04-01T10:33:29.733Z,19.60
2023-04-01T10:34:29.753Z,19.65
2023-04-01T10:35:30.093Z,19.55
2023-04-01T10:36:29.822Z,19.57
2023-04-01T10:37:29.822Z,19.53
2023-04-01T10:38:30.003Z,19.62
2023-04-01T10:39:29.878Z,19.61
2023-04-01T10:40:29.928Z,19.62
2023-04-01T10:41:29.934Z,19.57
2023-04-01T10:42:30.067Z,19.58
2023-04-01T10:43:29.997Z,19.60
2023-04-01T10:44:30.026Z,19.57
2023-04-01T10:45:30.294Z,19.52
2023-04-01T10:46:30.117Z,19.62
2023-04-01T10:48:30.465Z,19.55
2023-04-01T10:49:30.179Z,19.60
2023-04-01T10:50:30.189Z,19.49
2023-04-01T10:51:30.229Z,19.57
2023-04-01T10:52:30.285Z,19.52
2023-04-01T10:53:30.286Z,19.53
2023-04-01T10:54:30.669Z,19.49
2023-04-01T10:55:30.381Z,19.52
2023-04-01T10:56:30.367Z,19.53
2023-04-01T10:57:30.614Z,19.53
2023-04-01T10:58:30.423Z,19.53
2023-04-01T10:59:30.449Z,19.53
2023-04-01T11:00:30.800Z,19.53
2023-04-01T11:02:30.613Z,19.53
2023-04-01T11:04:30.590Z,19.58
2023-04-01T11:05:30.632Z,19.61
2023-04-01T11:06:30.651Z,19.65
2023-04-01T11:08:30.908Z,19.64
2023-04-01T11:09:30.736Z,19.65
2023-04-01T11:10:30.765Z,19.62
2023-04-01T11:11:30.831Z,19.57
2023-04-01T11:12:30.920Z,19.70
2023-04-01T11:13:31.164Z,19.62
2023-04-01T11:14:30.877Z,19.68
2023-04-01T11:15:31.001Z,19.70
2023-04-01T11:16:31.030Z,19.71
2023-04-01T11:17:30.984Z,19.70
2023-04-01T11:18:31.004Z,19.70
2023-04-01T11:19:31.071Z,19.68
2023-04-01T11:20:31.477Z,19.70
2023-04-01T11:21:31.101Z,19.76
2023-04-01T11:22:31.112Z,19.72
2023-04-01T11:23:31.607Z,19.75
2023-04-01T11:24:31.160Z,19.75
2023-04-01T11:25:31.708Z,19.79
2023-04-01T11:26:31.214Z,19.78
2023-04-01T11:27:31.545Z,19.76
2023-04-01T11:28:31.277Z,19.72
2023-04-01T11:29:31.326Z,19.76
2023-04-01T11:30:31.715Z,19.79
2023-04-01T11:31:31.446Z,19.76
2023-04-01T11:32:31.418Z,19.79
2023-04-01T11:33:31.480Z,19.82
2023-04-01T11:34:31.793Z,19.85
2023-04-01T11:35:31.725Z,19.94
2023-04-01T11:36:31.569Z,19.95
2023-04-01T11:37:31.565Z,19.90
2023-04-01T11:38:31.561Z,19.94
2023-04-01T11:39:31.643Z,20.02
2023-04-01T11:40:31.719Z,20.05
2023-04-01T11:41:32.061Z,20.04
2023-04-01T11:42:31.721Z,20.04
2023-04-01T11:43:33.817Z,20.12
2023-04-01T11:44:31.739Z,20.10
2023-04-01T11:45:32.060Z,20.16
2023-04-01T11:46:31.799Z,20.15
2023-04-01T11:47:31.877Z,20.16
2023-04-01T11:48:32.145Z,20.13
2023-04-01T11:49:31.884Z,20.17
2023-04-01T11:51:31.933Z,20.22
2023-04-01T11:52:31.966Z,20.22
2023-04-01T11:54:32.386Z,20.27
2023-04-01T11:55:32.256Z,20.27
2023-04-01T11:56:32.190Z,20.37
2023-04-01T11:57:32.261Z,20.33
2023-04-01T11:58:32.144Z,20.38
2023-04-01T11:59:32.184Z,20.41
2023-04-01T12:00:32.216Z,20.44
2023-04-01T12:01:32.238Z,20.44
2023-04-01T12:02:32.332Z,20.44
2023-04-01T12:03:32.417Z,20.54
2023-04-01T12:04:32.322Z,20.60
2023-04-01T12:05:32.590Z,20.58
2023-04-01T12:06:32.832Z,20.61
2023-04-01T12:07:32.402Z,20.57
2023-04-01T12:08:32.427Z,20.68
2023-04-01T12:09:32.475Z,20.60
2023-04-01T12:10:32.575Z,20.72
2023-04-01T12:12:32.898Z,20.61
2023-04-01T12:13:32.609Z,20.64
2023-04-01T12:14:32.609Z,20.63
2023-04-01T12:16:32.812Z,20.53
2023-04-01T12:17:32.718Z,20.61
2023-04-01T12:18:32.720Z,20.57
2023-04-01T12:19:33.081Z,20.54
2023-04-01T12:20:32.778Z,20.58
2023-04-01T12:21:32.809Z,20.57
2023-04-01T12:22:33.979Z,20.60
2023-04-01T12:23:32.880Z,20.63
2023-04-01T12:24:32.903Z,20.58
2023-04-01T12:25:33.117Z,20.68
2023-04-01T12:26:33.397Z,20.64
2023-04-01T12:27:33.014Z,20.57
2023-04-01T12:28:33.008Z,20.64
2023-04-01T12:29:33.044Z,20.61
2023-04-01T12:30:33.081Z,20.68
2023-04-01T12:31:33.172Z,20.61
2023-04-01T12:32:33.158Z,20.61
2023-04-01T12:33:33.501Z,20.61
2023-04-01T12:34:33.193Z,20.68
2023-04-01T12:35:33.507Z,20.69
2023-04-01T12:36:33.319Z,20.61
2023-04-01T12:37:33.278Z,20.58
2023-04-01T12:38:33.304Z,20.57
2023-04-01T12:39:33.393Z,20.66
2023-04-01T12:40:34.003Z,20.56
2023-04-01T12:41:33.405Z,20.57
2023-04-01T12:42:33.442Z,20.63
2023-04-01T12:43:33.453Z,20.57
2023-04-01T12:44:33.471Z,20.60
2023-04-01T12:45:33.674Z,20.57
2023-04-01T12:46:33.646Z,20.56
2023-04-01T12:47:33.913Z,20.60
2023-04-01T12:48:33.604Z,20.58
2023-04-01T12:49:33.627Z,20.54
2023-04-01T12:50:33.677Z,20.60
2023-04-01T12:51:33.679Z,20.60
2023-04-01T12:52:33.720Z,20.60
2023-04-01T12:53:33.803Z,20.51
2023-04-01T12:54:34.089Z,20.60
2023-04-01T12:55:33.997Z,20.57
2023-04-01T12:56:33.884Z,20.42
2023-04-01T12:57:33.993Z,20.60
2023-04-01T12:58:33.907Z,20.41
2023-04-01T12:59:33.966Z,20.44
2023-04-01T13:01:34.332Z,20.46
2023-04-01T13:02:34.094Z,20.41
2023-04-01T13:03:34.045Z,20.42
2023-04-01T13:04:34.063Z,20.42
2023-04-01T13:05:34.285Z,20.48
2023-04-01T13:06:34.128Z,20.41
2023-04-01T13:07:34.216Z,20.48
2023-04-01T13:08:34.187Z,20.44
2023-04-01T13:09:34.212Z,20.40
2023-04-01T13:10:34.565Z,20.44
2023-04-01T13:11:34.276Z,20.40
2023-04-01T13:12:35.088Z,20.41
2023-04-01T13:14:34.698Z,20.37
2023-04-01T13:15:34.439Z,20.35
2023-04-01T13:17:34.513Z,20.31
2023-04-01T13:18:34.475Z,20.25
2023-04-01T13:19:34.502Z,20.22
2023-04-01T13:20:35.019Z,20.26
2023-04-01T13:22:34.648Z,20.19
2023-04-01T13:23:34.646Z,20.16
2023-04-01T13:24:34.690Z,20.19
2023-04-01T13:25:34.772Z,20.15
2023-04-01T13:26:35.052Z,20.17
2023-04-01T13:27:34.800Z,20.16
2023-04-01T13:28:34.763Z,20.16
2023-04-01T13:29:34.801Z,20.15
2023-04-01T13:31:34.932Z,20.16
2023-04-01T13:33:34.931Z,20.04
2023-04-01T13:34:34.944Z,20.01
2023-04-01T13:35:35.034Z,20.00
2023-04-01T13:36:35.052Z,20.05
2023-04-01T13:37:36.179Z,20.04
2023-04-01T13:38:35.059Z,20.13
2023-04-01T13:39:35.381Z,20.07
2023-04-01T13:40:35.289Z,20.07
2023-04-01T13:42:35.177Z,20.05
2023-04-01T13:43:35.198Z,20.05
2023-04-01T13:44:35.316Z,20.01
2023-04-01T13:45:35.261Z,19.94
2023-04-01T13:46:35.718Z,20.00
2023-04-01T13:47:35.495Z,20.00
2023-04-01T13:48:35.341Z,19.97
2023-04-01T13:49:35.368Z,19.95
2023-04-01T13:50:35.762Z,19.92
2023-04-01T13:52:35.770Z,19.90
2023-04-01T13:53:35.515Z,19.97
2023-04-01T13:54:35.519Z,19.89
2023-04-01T13:55:35.600Z,19.94
2023-04-01T13:56:35.589Z,19.87
2023-04-01T13:57:35.682Z,19.97
2023-04-01T13:58:35.627Z,19.90
2023-04-01T13:59:36.243Z,19.92
2023-04-01T14:00:36.046Z,19.90
2023-04-01T14:01:35.895Z,19.90
2023-04-01T14:03:35.927Z,19.95
2023-04-01T14:04:35.880Z,19.90
2023-04-01T14:05:43.424Z,19.94
2023-04-01T14:06:36.155Z,19.87
2023-04-01T14:07:35.943Z,19.89
2023-04-01T14:09:35.970Z,19.92
2023-04-01T14:10:36.020Z,19.94
2023-04-01T14:11:35.998Z,19.97
2023-04-01T14:12:36.027Z,19.90
2023-04-01T14:13:36.568Z,19.97
2023-04-01T14:14:36.097Z,19.90
2023-04-01T14:15:36.269Z,19.87
2023-04-01T14:16:36.193Z,19.92
2023-04-01T14:17:36.249Z,19.94
2023-04-01T14:18:37.453Z,19.97
2023-04-01T14:19:36.550Z,19.92
2023-04-01T14:20:36.272Z,19.94
2023-04-01T14:21:36.372Z,19.92
2023-04-01T14:22:36.341Z,19.89
2023-04-01T14:24:36.407Z,19.90
2023-04-01T14:25:37.906Z,19.94
2023-04-01T14:26:36.434Z,19.87
2023-04-01T14:27:36.511Z,19.90
2023-04-01T14:28:36.504Z,19.94
2023-04-01T14:29:36.522Z,19.94
2023-04-01T14:30:36.610Z,19.95
2023-04-01T14:31:37.038Z,19.89
2023-04-01T14:32:36.651Z,19.94
2023-04-01T14:33:36.649Z,19.86
2023-04-01T14:34:36.675Z,19.94
2023-04-01T14:35:37.040Z,19.92
2023-04-01T14:36:36.724Z,19.89
2023-04-01T14:37:37.128Z,19.92
2023-04-01T14:38:36.790Z,19.94
2023-04-01T14:39:36.830Z,19.97
2023-04-01T14:40:36.848Z,19.92
2023-04-01T14:41:36.971Z,19.89
2023-04-01T14:42:36.996Z,19.92
2023-04-01T14:43:38.718Z,19.94
2023-04-01T14:44:37.265Z,19.90
2023-04-01T14:45:37.185Z,19.92
2023-04-01T14:46:37.018Z,19.94
2023-04-01T14:47:37.108Z,19.90
2023-04-01T14:48:37.068Z,19.94
2023-04-01T14:49:37.095Z,19.92
2023-04-01T14:50:37.120Z,19.92
2023-04-01T14:51:37.549Z,19.89
2023-04-01T14:52:37.204Z,19.90
2023-04-01T14:53:37.214Z,19.89
2023-04-01T14:54:37.243Z,19.92
2023-04-01T14:55:37.315Z,19.87
2023-04-01T14:56:37.317Z,19.92
2023-04-01T14:57:37.407Z,19.94
2023-04-01T14:58:37.656Z,19.86
2023-04-01T14:59:37.385Z,19.82
2023-04-01T15:00:37.414Z,19.90
2023-04-01T15:01:37.710Z,19.90
2023-04-01T15:02:37.523Z,19.94
2023-04-01T15:03:37.513Z,19.82
2023-04-01T15:04:37.618Z,19.83
2023-04-01T15:05:37.860Z,19.92
2023-04-01T15:06:37.595Z,19.95
2023-04-01T15:07:37.692Z,19.90
2023-04-01T15:08:37.648Z,19.87
2023-04-01T15:09:37.696Z,19.87
2023-04-01T15:10:37.717Z,19.95
2023-04-01T15:12:38.062Z,19.87
2023-04-01T15:14:37.812Z,19.90
2023-04-01T15:15:37.891Z,19.85
2023-04-01T15:16:37.888Z,19.85
2023-04-01T15:17:37.915Z,19.92
2023-04-01T15:18:38.080Z,19.82
2023-04-01T15:19:38.036Z,19.82
2023-04-01T15:20:37.988Z,19.85